sensor_id;sensor_type;location;lat;lon;timestamp;P1;durP1;ratioP1;P2;durP2;ratioP2
52412;SDS011;38339;53.234;6.578;2022-11-15T00:00:33;35.30;;;24.75;;
52412;SDS011;38339;53.234;6.578;2022-11-15T00:02:58;33.47;;;23.95;;
52412;SDS011;38339;53.234;6.578;2022-11-15T00:05:24;34.70;;;25.02;;
52412;SDS011;38339;53.234;6.578;2022-11-15T00:07:50;36.83;;;24.45;;
52412;SDS011;38339;53.234;6.578;2022-11-15T00:10:16;37.30;;;24.77;;
52412;SDS011;38339;53.234;6.578;2022-11-15T00:12:41;32.90;;;24.95;;
52412;SDS011;38339;53.234;6.578;2022-11-15T00:15:07;32.08;;;23.40;;
52412;SDS011;38339;53.234;6.578;2022-11-15T00:17:33;32.63;;;23.92;;
52412;SDS011;38339;53.234;6.578;2022-11-15T00:19:59;33.08;;;24.10;;
52412;SDS011;38339;53.234;6.578;2022-11-15T00:22:24;34.75;;;24.08;;
52412;SDS011;38339;53.234;6.578;2022-11-15T00:24:55;34.25;;;24.02;;
52412;SDS011;38339;53.234;6.578;2022-11-15T00:27:21;34.97;;;24.35;;
52412;SDS011;38339;53.234;6.578;2022-11-15T00:29:47;31.65;;;22.88;;
52412;SDS011;38339;53.234;6.578;2022-11-15T00:32:12;34.83;;;24.05;;
52412;SDS011;38339;53.234;6.578;2022-11-15T00:34:38;32.60;;;22.73;;
52412;SDS011;38339;53.234;6.578;2022-11-15T00:37:03;33.92;;;24.30;;
52412;SDS011;38339;53.234;6.578;2022-11-15T00:39:30;33.47;;;23.77;;
52412;SDS011;38339;53.234;6.578;2022-11-15T00:41:56;33.67;;;24.08;;
52412;SDS011;38339;53.234;6.578;2022-11-15T00:44:22;33.53;;;23.10;;
52412;SDS011;38339;53.234;6.578;2022-11-15T00:46:47;34.13;;;24.05;;
52412;SDS011;38339;53.234;6.578;2022-11-15T00:49:13;34.55;;;24.13;;
52412;SDS011;38339;53.234;6.578;2022-11-15T00:51:38;34.35;;;23.45;;
52412;SDS011;38339;53.234;6.578;2022-11-15T00:54:04;32.00;;;23.90;;
52412;SDS011;38339;53.234;6.578;2022-11-15T00:56:30;33.47;;;25.20;;
52412;SDS011;38339;53.234;6.578;2022-11-15T00:58:55;35.35;;;24.92;;
52412;SDS011;38339;53.234;6.578;2022-11-15T01:01:21;34.33;;;24.35;;
52412;SDS011;38339;53.234;6.578;2022-11-15T01:03:47;33.63;;;23.98;;
52412;SDS011;38339;53.234;6.578;2022-11-15T01:06:12;34.60;;;24.63;;
52412;SDS011;38339;53.234;6.578;2022-11-15T01:08:41;34.75;;;25.60;;
52412;SDS011;38339;53.234;6.578;2022-11-15T01:11:09;35.35;;;24.40;;
52412;SDS011;38339;53.234;6.578;2022-11-15T01:13:37;35.22;;;24.55;;
52412;SDS011;38339;53.234;6.578;2022-11-15T01:18:42;32.97;;;23.42;;
52412;SDS011;38339;53.234;6.578;2022-11-15T01:21:09;32.67;;;23.05;;
52412;SDS011;38339;53.234;6.578;2022-11-15T01:23:36;31.85;;;23.15;;
52412;SDS011;38339;53.234;6.578;2022-11-15T01:26:02;33.33;;;24.25;;
52412;SDS011;38339;53.234;6.578;2022-11-15T01:28:34;32.53;;;23.92;;
52412;SDS011;38339;53.234;6.578;2022-11-15T01:31:03;33.17;;;23.77;;
52412;SDS011;38339;53.234;6.578;2022-11-15T01:33:30;33.88;;;24.00;;
52412;SDS011;38339;53.234;6.578;2022-11-15T01:35:56;28.45;;;22.30;;
52412;SDS011;38339;53.234;6.578;2022-11-15T01:38:22;31.15;;;22.85;;
52412;SDS011;38339;53.234;6.578;2022-11-15T01:40:47;31.42;;;22.67;;
52412;SDS011;38339;53.234;6.578;2022-11-15T01:45:53;33.08;;;23.65;;
52412;SDS011;38339;53.234;6.578;2022-11-15T01:48:25;30.77;;;22.65;;
52412;SDS011;38339;53.234;6.578;2022-11-15T01:50:57;32.78;;;22.77;;
52412;SDS011;38339;53.234;6.578;2022-11-15T01:53:24;35.65;;;23.70;;
52412;SDS011;38339;53.234;6.578;2022-11-15T01:55:51;33.55;;;23.75;;
52412;SDS011;38339;53.234;6.578;2022-11-15T01:58:18;35.30;;;24.77;;
52412;SDS011;38339;53.234;6.578;2022-11-15T02:00:43;34.92;;;24.42;;
52412;SDS011;38339;53.234;6.578;2022-11-15T02:03:09;32.72;;;24.27;;
52412;SDS011;38339;53.234;6.578;2022-11-15T02:05:35;34.67;;;23.67;;
52412;SDS011;38339;53.234;6.578;2022-11-15T02:08:02;34.67;;;24.73;;
52412;SDS011;38339;53.234;6.578;2022-11-15T02:10:28;33.10;;;23.25;;
52412;SDS011;38339;53.234;6.578;2022-11-15T02:12:54;31.13;;;23.17;;
52412;SDS011;38339;53.234;6.578;2022-11-15T02:15:21;34.53;;;24.48;;
52412;SDS011;38339;53.234;6.578;2022-11-15T02:25:57;29.77;;;21.75;;
52412;SDS011;38339;53.234;6.578;2022-11-15T02:31:39;30.60;;;22.15;;
52412;SDS011;38339;53.234;6.578;2022-11-15T02:34:35;31.90;;;22.42;;
52412;SDS011;38339;53.234;6.578;2022-11-15T02:37:11;33.45;;;22.90;;
52412;SDS011;38339;53.234;6.578;2022-11-15T02:40:05;31.48;;;21.98;;
52412;SDS011;38339;53.234;6.578;2022-11-15T02:42:36;33.78;;;22.40;;
52412;SDS011;38339;53.234;6.578;2022-11-15T02:45:29;35.00;;;23.38;;
52412;SDS011;38339;53.234;6.578;2022-11-15T02:48:00;34.33;;;23.73;;
52412;SDS011;38339;53.234;6.578;2022-11-15T02:50:29;33.05;;;22.25;;
52412;SDS011;38339;53.234;6.578;2022-11-15T02:52:56;33.80;;;22.77;;
52412;SDS011;38339;53.234;6.578;2022-11-15T02:55:26;35.20;;;23.63;;
52412;SDS011;38339;53.234;6.578;2022-11-15T03:00:47;38.65;;;23.98;;
52412;SDS011;38339;53.234;6.578;2022-11-15T03:11:27;37.53;;;24.50;;
52412;SDS011;38339;53.234;6.578;2022-11-15T03:21:41;38.33;;;24.23;;
52412;SDS011;38339;53.234;6.578;2022-11-15T03:24:08;42.75;;;25.00;;
52412;SDS011;38339;53.234;6.578;2022-11-15T03:26:34;42.53;;;24.90;;
52412;SDS011;38339;53.234;6.578;2022-11-15T03:29:13;39.58;;;25.10;;
52412;SDS011;38339;53.234;6.578;2022-11-15T03:31:47;37.53;;;23.52;;
52412;SDS011;38339;53.234;6.578;2022-11-15T03:34:33;40.08;;;24.52;;
52412;SDS011;38339;53.234;6.578;2022-11-15T03:37:08;37.88;;;23.88;;
52412;SDS011;38339;53.234;6.578;2022-11-15T03:39:36;39.58;;;23.75;;
52412;SDS011;38339;53.234;6.578;2022-11-15T03:45:08;42.25;;;24.50;;
52412;SDS011;38339;53.234;6.578;2022-11-15T03:47:53;39.03;;;24.17;;
52412;SDS011;38339;53.234;6.578;2022-11-15T03:50:38;39.97;;;24.60;;
52412;SDS011;38339;53.234;6.578;2022-11-15T03:53:04;40.60;;;23.92;;
52412;SDS011;38339;53.234;6.578;2022-11-15T03:55:31;38.47;;;23.55;;
52412;SDS011;38339;53.234;6.578;2022-11-15T03:57:58;39.58;;;24.38;;
52412;SDS011;38339;53.234;6.578;2022-11-15T04:00:25;38.65;;;24.70;;
52412;SDS011;38339;53.234;6.578;2022-11-15T04:02:51;40.10;;;24.95;;
52412;SDS011;38339;53.234;6.578;2022-11-15T04:05:17;39.47;;;24.25;;
52412;SDS011;38339;53.234;6.578;2022-11-15T04:07:43;39.83;;;23.88;;
52412;SDS011;38339;53.234;6.578;2022-11-15T04:10:09;39.00;;;22.92;;
52412;SDS011;38339;53.234;6.578;2022-11-15T04:12:37;42.05;;;24.35;;
52412;SDS011;38339;53.234;6.578;2022-11-15T04:17:54;41.75;;;24.33;;
52412;SDS011;38339;53.234;6.578;2022-11-15T04:20:28;37.97;;;23.65;;
52412;SDS011;38339;53.234;6.578;2022-11-15T04:23:15;38.60;;;23.60;;
52412;SDS011;38339;53.234;6.578;2022-11-15T04:26:11;40.45;;;23.08;;
52412;SDS011;38339;53.234;6.578;2022-11-15T04:28:41;38.65;;;23.95;;
52412;SDS011;38339;53.234;6.578;2022-11-15T04:31:25;39.03;;;23.55;;
52412;SDS011;38339;53.234;6.578;2022-11-15T04:33:51;38.50;;;23.23;;
52412;SDS011;38339;53.234;6.578;2022-11-15T04:36:17;41.17;;;23.77;;
52412;SDS011;38339;53.234;6.578;2022-11-15T04:39:02;45.85;;;24.73;;
52412;SDS011;38339;53.234;6.578;2022-11-15T04:41:28;40.53;;;24.40;;
52412;SDS011;38339;53.234;6.578;2022-11-15T04:43:54;40.15;;;25.05;;
52412;SDS011;38339;53.234;6.578;2022-11-15T04:46:20;44.72;;;26.45;;
52412;SDS011;38339;53.234;6.578;2022-11-15T04:48:46;42.08;;;25.67;;
52412;SDS011;38339;53.234;6.578;2022-11-15T04:51:12;45.67;;;25.80;;
52412;SDS011;38339;53.234;6.578;2022-11-15T04:53:38;45.17;;;26.35;;
52412;SDS011;38339;53.234;6.578;2022-11-15T04:56:04;46.83;;;25.52;;
52412;SDS011;38339;53.234;6.578;2022-11-15T04:58:29;44.80;;;24.65;;
52412;SDS011;38339;53.234;6.578;2022-11-15T05:00:55;47.40;;;25.88;;
52412;SDS011;38339;53.234;6.578;2022-11-15T05:03:21;44.30;;;25.58;;
52412;SDS011;38339;53.234;6.578;2022-11-15T05:06:05;47.70;;;26.02;;
52412;SDS011;38339;53.234;6.578;2022-11-15T05:08:31;48.15;;;25.50;;
52412;SDS011;38339;53.234;6.578;2022-11-15T05:10:57;48.28;;;26.35;;
52412;SDS011;38339;53.234;6.578;2022-11-15T05:13:22;45.42;;;27.25;;
52412;SDS011;38339;53.234;6.578;2022-11-15T05:15:48;52.72;;;27.63;;
52412;SDS011;38339;53.234;6.578;2022-11-15T05:18:14;52.45;;;28.45;;
52412;SDS011;38339;53.234;6.578;2022-11-15T05:20:39;48.90;;;27.77;;
52412;SDS011;38339;53.234;6.578;2022-11-15T05:23:05;50.13;;;28.38;;
52412;SDS011;38339;53.234;6.578;2022-11-15T05:25:31;51.50;;;28.95;;
52412;SDS011;38339;53.234;6.578;2022-11-15T05:27:56;53.13;;;29.25;;
52412;SDS011;38339;53.234;6.578;2022-11-15T05:30:22;59.30;;;30.17;;
52412;SDS011;38339;53.234;6.578;2022-11-15T05:32:48;57.85;;;31.35;;
52412;SDS011;38339;53.234;6.578;2022-11-15T05:35:21;55.78;;;30.92;;
52412;SDS011;38339;53.234;6.578;2022-11-15T05:38:09;58.15;;;30.95;;
52412;SDS011;38339;53.234;6.578;2022-11-15T05:40:35;58.80;;;32.28;;
52412;SDS011;38339;53.234;6.578;2022-11-15T05:43:00;58.47;;;29.42;;
52412;SDS011;38339;53.234;6.578;2022-11-15T05:45:29;59.30;;;31.17;;
52412;SDS011;38339;53.234;6.578;2022-11-15T05:47:56;53.47;;;29.77;;
52412;SDS011;38339;53.234;6.578;2022-11-15T05:50:24;63.83;;;31.90;;
52412;SDS011;38339;53.234;6.578;2022-11-15T05:52:50;63.28;;;32.90;;
52412;SDS011;38339;53.234;6.578;2022-11-15T05:55:16;59.78;;;32.40;;
52412;SDS011;38339;53.234;6.578;2022-11-15T05:57:42;58.58;;;31.77;;
52412;SDS011;38339;53.234;6.578;2022-11-15T06:00:08;62.92;;;32.70;;
52412;SDS011;38339;53.234;6.578;2022-11-15T06:02:34;66.20;;;35.05;;
52412;SDS011;38339;53.234;6.578;2022-11-15T06:05:00;70.53;;;35.15;;
52412;SDS011;38339;53.234;6.578;2022-11-15T06:07:26;66.65;;;34.95;;
52412;SDS011;38339;53.234;6.578;2022-11-15T06:09:53;74.72;;;37.03;;
52412;SDS011;38339;53.234;6.578;2022-11-15T06:12:19;69.35;;;35.28;;
52412;SDS011;38339;53.234;6.578;2022-11-15T06:14:45;66.78;;;35.20;;
52412;SDS011;38339;53.234;6.578;2022-11-15T06:17:10;71.97;;;36.03;;
52412;SDS011;38339;53.234;6.578;2022-11-15T06:19:36;65.30;;;34.30;;
52412;SDS011;38339;53.234;6.578;2022-11-15T06:22:02;73.05;;;38.15;;
52412;SDS011;38339;53.234;6.578;2022-11-15T06:24:27;68.97;;;36.47;;
52412;SDS011;38339;53.234;6.578;2022-11-15T06:26:53;68.43;;;35.92;;
52412;SDS011;38339;53.234;6.578;2022-11-15T06:29:19;71.43;;;37.35;;
52412;SDS011;38339;53.234;6.578;2022-11-15T06:31:45;72.97;;;37.42;;
52412;SDS011;38339;53.234;6.578;2022-11-15T06:34:10;76.85;;;36.65;;
52412;SDS011;38339;53.234;6.578;2022-11-15T06:36:36;68.70;;;35.60;;
52412;SDS011;38339;53.234;6.578;2022-11-15T06:39:05;77.15;;;38.42;;
52412;SDS011;38339;53.234;6.578;2022-11-15T06:41:33;72.13;;;38.08;;
52412;SDS011;38339;53.234;6.578;2022-11-15T06:44:00;81.63;;;40.08;;
52412;SDS011;38339;53.234;6.578;2022-11-15T06:46:25;67.43;;;34.80;;
52412;SDS011;38339;53.234;6.578;2022-11-15T06:48:52;74.00;;;38.78;;
52412;SDS011;38339;53.234;6.578;2022-11-15T06:51:18;71.63;;;38.30;;
52412;SDS011;38339;53.234;6.578;2022-11-15T06:53:44;68.22;;;36.15;;
52412;SDS011;38339;53.234;6.578;2022-11-15T06:56:09;71.38;;;38.30;;
52412;SDS011;38339;53.234;6.578;2022-11-15T06:58:35;77.03;;;38.92;;
52412;SDS011;38339;53.234;6.578;2022-11-15T07:01:05;77.75;;;39.60;;
52412;SDS011;38339;53.234;6.578;2022-11-15T07:03:37;63.03;;;36.17;;
52412;SDS011;38339;53.234;6.578;2022-11-15T07:06:04;72.07;;;37.63;;
52412;SDS011;38339;53.234;6.578;2022-11-15T07:08:30;70.50;;;37.53;;
52412;SDS011;38339;53.234;6.578;2022-11-15T07:11:00;73.00;;;38.25;;
52412;SDS011;38339;53.234;6.578;2022-11-15T07:13:28;73.93;;;37.10;;
52412;SDS011;38339;53.234;6.578;2022-11-15T07:15:54;65.82;;;37.00;;
52412;SDS011;38339;53.234;6.578;2022-11-15T07:18:20;71.80;;;36.22;;
52412;SDS011;38339;53.234;6.578;2022-11-15T07:20:46;71.35;;;37.22;;
52412;SDS011;38339;53.234;6.578;2022-11-15T07:23:12;65.97;;;37.08;;
52412;SDS011;38339;53.234;6.578;2022-11-15T07:25:38;67.45;;;35.60;;
52412;SDS011;38339;53.234;6.578;2022-11-15T07:28:03;69.28;;;37.13;;
52412;SDS011;38339;53.234;6.578;2022-11-15T07:30:29;65.35;;;36.00;;
52412;SDS011;38339;53.234;6.578;2022-11-15T07:32:56;69.85;;;37.60;;
52412;SDS011;38339;53.234;6.578;2022-11-15T07:35:23;71.45;;;36.95;;
52412;SDS011;38339;53.234;6.578;2022-11-15T07:37:59;69.63;;;38.38;;
52412;SDS011;38339;53.234;6.578;2022-11-15T07:40:27;69.38;;;37.33;;
52412;SDS011;38339;53.234;6.578;2022-11-15T07:43:04;66.93;;;36.63;;
52412;SDS011;38339;53.234;6.578;2022-11-15T07:45:31;70.55;;;37.10;;
52412;SDS011;38339;53.234;6.578;2022-11-15T07:48:00;71.45;;;35.58;;
52412;SDS011;38339;53.234;6.578;2022-11-15T07:50:26;71.65;;;37.03;;
52412;SDS011;38339;53.234;6.578;2022-11-15T07:52:55;63.47;;;34.80;;
52412;SDS011;38339;53.234;6.578;2022-11-15T07:55:22;67.78;;;36.95;;
52412;SDS011;38339;53.234;6.578;2022-11-15T07:57:49;65.03;;;35.75;;
52412;SDS011;38339;53.234;6.578;2022-11-15T08:00:15;66.47;;;33.92;;
52412;SDS011;38339;53.234;6.578;2022-11-15T08:02:41;59.00;;;35.30;;
52412;SDS011;38339;53.234;6.578;2022-11-15T08:05:07;60.72;;;34.63;;
52412;SDS011;38339;53.234;6.578;2022-11-15T08:07:33;66.63;;;34.75;;
52412;SDS011;38339;53.234;6.578;2022-11-15T08:09:58;58.40;;;33.65;;
52412;SDS011;38339;53.234;6.578;2022-11-15T08:12:26;67.40;;;35.72;;
52412;SDS011;38339;53.234;6.578;2022-11-15T08:14:54;52.00;;;29.35;;
52412;SDS011;38339;53.234;6.578;2022-11-15T08:17:21;54.95;;;31.92;;
52412;SDS011;38339;53.234;6.578;2022-11-15T08:19:47;53.42;;;30.60;;
52412;SDS011;38339;53.234;6.578;2022-11-15T08:22:13;60.15;;;32.47;;
52412;SDS011;38339;53.234;6.578;2022-11-15T08:24:39;55.00;;;30.95;;
52412;SDS011;38339;53.234;6.578;2022-11-15T08:27:05;54.13;;;31.25;;
52412;SDS011;38339;53.234;6.578;2022-11-15T08:29:39;52.53;;;30.35;;
52412;SDS011;38339;53.234;6.578;2022-11-15T08:32:09;50.65;;;29.88;;
52412;SDS011;38339;53.234;6.578;2022-11-15T08:34:36;51.47;;;30.35;;
52412;SDS011;38339;53.234;6.578;2022-11-15T08:37:05;54.97;;;31.33;;
52412;SDS011;38339;53.234;6.578;2022-11-15T08:39:30;49.42;;;30.13;;
52412;SDS011;38339;53.234;6.578;2022-11-15T08:41:56;46.97;;;28.00;;
52412;SDS011;38339;53.234;6.578;2022-11-15T08:44:22;45.05;;;28.67;;
52412;SDS011;38339;53.234;6.578;2022-11-15T08:46:49;45.85;;;29.67;;
52412;SDS011;38339;53.234;6.578;2022-11-15T08:49:15;51.17;;;29.20;;
52412;SDS011;38339;53.234;6.578;2022-11-15T08:51:41;43.00;;;27.48;;
52412;SDS011;38339;53.234;6.578;2022-11-15T08:54:07;42.45;;;28.35;;
52412;SDS011;38339;53.234;6.578;2022-11-15T08:56:32;44.15;;;28.33;;
52412;SDS011;38339;53.234;6.578;2022-11-15T08:58:58;48.50;;;29.08;;
52412;SDS011;38339;53.234;6.578;2022-11-15T09:01:24;47.85;;;27.83;;
52412;SDS011;38339;53.234;6.578;2022-11-15T09:03:49;47.00;;;27.85;;
52412;SDS011;38339;53.234;6.578;2022-11-15T09:06:16;42.10;;;26.02;;
52412;SDS011;38339;53.234;6.578;2022-11-15T09:08:41;39.55;;;26.40;;
52412;SDS011;38339;53.234;6.578;2022-11-15T09:11:08;37.47;;;25.58;;
52412;SDS011;38339;53.234;6.578;2022-11-15T09:13:35;38.70;;;24.55;;
52412;SDS011;38339;53.234;6.578;2022-11-15T09:16:02;35.97;;;24.63;;
52412;SDS011;38339;53.234;6.578;2022-11-15T09:18:28;37.15;;;23.00;;
52412;SDS011;38339;53.234;6.578;2022-11-15T09:20:55;35.58;;;23.52;;
52412;SDS011;38339;53.234;6.578;2022-11-15T09:23:22;32.13;;;22.48;;
52412;SDS011;38339;53.234;6.578;2022-11-15T09:25:49;35.30;;;23.45;;
52412;SDS011;38339;53.234;6.578;2022-11-15T09:28:14;32.75;;;23.33;;
52412;SDS011;38339;53.234;6.578;2022-11-15T09:30:40;32.03;;;21.70;;
52412;SDS011;38339;53.234;6.578;2022-11-15T09:33:09;32.63;;;22.25;;
52412;SDS011;38339;53.234;6.578;2022-11-15T09:35:37;34.92;;;22.52;;
52412;SDS011;38339;53.234;6.578;2022-11-15T09:38:03;38.60;;;22.60;;
52412;SDS011;38339;53.234;6.578;2022-11-15T09:40:32;32.95;;;22.42;;
52412;SDS011;38339;53.234;6.578;2022-11-15T09:45:55;32.50;;;21.30;;
52412;SDS011;38339;53.234;6.578;2022-11-15T09:51:52;33.30;;;20.98;;
52412;SDS011;38339;53.234;6.578;2022-11-15T09:54:31;31.08;;;21.02;;
52412;SDS011;38339;53.234;6.578;2022-11-15T10:05:31;28.00;;;20.45;;
52412;SDS011;38339;53.234;6.578;2022-11-15T10:08:11;30.45;;;20.65;;
52412;SDS011;38339;53.234;6.578;2022-11-15T10:10:42;29.73;;;20.63;;
52412;SDS011;38339;53.234;6.578;2022-11-15T10:13:17;26.20;;;19.23;;
52412;SDS011;38339;53.234;6.578;2022-11-15T10:15:47;30.33;;;20.60;;
52412;SDS011;38339;53.234;6.578;2022-11-15T10:20:48;32.13;;;19.20;;
52412;SDS011;38339;53.234;6.578;2022-11-15T10:23:19;30.40;;;19.35;;
52412;SDS011;38339;53.234;6.578;2022-11-15T10:25:48;28.80;;;19.88;;
52412;SDS011;38339;53.234;6.578;2022-11-15T10:30:49;32.63;;;19.35;;
52412;SDS011;38339;53.234;6.578;2022-11-15T10:33:19;24.60;;;18.48;;
52412;SDS011;38339;53.234;6.578;2022-11-15T10:47:03;25.42;;;17.80;;
52412;SDS011;38339;53.234;6.578;2022-11-15T10:49:32;26.90;;;18.08;;
52412;SDS011;38339;53.234;6.578;2022-11-15T10:54:38;24.58;;;18.60;;
52412;SDS011;38339;53.234;6.578;2022-11-15T10:59:47;24.38;;;18.08;;
52412;SDS011;38339;53.234;6.578;2022-11-15T11:02:32;29.05;;;18.10;;
52412;SDS011;38339;53.234;6.578;2022-11-15T11:05:04;28.35;;;18.88;;
52412;SDS011;38339;53.234;6.578;2022-11-15T11:07:32;23.70;;;18.23;;
52412;SDS011;38339;53.234;6.578;2022-11-15T11:10:04;29.05;;;19.10;;
52412;SDS011;38339;53.234;6.578;2022-11-15T11:12:46;30.65;;;18.75;;
52412;SDS011;38339;53.234;6.578;2022-11-15T11:15:13;28.02;;;19.13;;
52412;SDS011;38339;53.234;6.578;2022-11-15T11:20:23;27.45;;;18.23;;
52412;SDS011;38339;53.234;6.578;2022-11-15T11:28:54;28.05;;;20.55;;
52412;SDS011;38339;53.234;6.578;2022-11-15T11:37:03;25.33;;;18.10;;
52412;SDS011;38339;53.234;6.578;2022-11-15T11:48:34;21.17;;;16.50;;
52412;SDS011;38339;53.234;6.578;2022-11-15T11:51:05;26.75;;;17.13;;
52412;SDS011;38339;53.234;6.578;2022-11-15T11:56:29;21.30;;;15.43;;
52412;SDS011;38339;53.234;6.578;2022-11-15T11:59:19;20.20;;;14.82;;
52412;SDS011;38339;53.234;6.578;2022-11-15T12:02:11;16.30;;;12.65;;
52412;SDS011;38339;53.234;6.578;2022-11-15T12:05:10;16.17;;;13.43;;
52412;SDS011;38339;53.234;6.578;2022-11-15T12:07:43;17.98;;;13.82;;
52412;SDS011;38339;53.234;6.578;2022-11-15T12:10:14;17.13;;;12.73;;
52412;SDS011;38339;53.234;6.578;2022-11-15T12:12:54;16.60;;;12.63;;
52412;SDS011;38339;53.234;6.578;2022-11-15T12:15:31;17.88;;;11.73;;
52412;SDS011;38339;53.234;6.578;2022-11-15T12:18:18;14.88;;;11.38;;
52412;SDS011;38339;53.234;6.578;2022-11-15T12:20:52;15.95;;;11.23;;
52412;SDS011;38339;53.234;6.578;2022-11-15T12:23:26;15.75;;;10.27;;
52412;SDS011;38339;53.234;6.578;2022-11-15T12:26:00;16.20;;;11.02;;
52412;SDS011;38339;53.234;6.578;2022-11-15T12:28:54;13.77;;;8.65;;
52412;SDS011;38339;53.234;6.578;2022-11-15T12:31:24;12.45;;;8.07;;
52412;SDS011;38339;53.234;6.578;2022-11-15T12:34:48;12.52;;;7.90;;
52412;SDS011;38339;53.234;6.578;2022-11-15T12:36:51;10.65;;;7.95;;
52412;SDS011;38339;53.234;6.578;2022-11-15T12:39:17;11.73;;;7.95;;
52412;SDS011;38339;53.234;6.578;2022-11-15T12:41:45;15.93;;;9.05;;
52412;SDS011;38339;53.234;6.578;2022-11-15T13:12:53;10.98;;;7.05;;
52412;SDS011;38339;53.234;6.578;2022-11-15T13:18:23;9.55;;;6.20;;
52412;SDS011;38339;53.234;6.578;2022-11-15T13:20:48;11.02;;;5.75;;
52412;SDS011;38339;53.234;6.578;2022-11-15T13:23:14;8.43;;;6.18;;
52412;SDS011;38339;53.234;6.578;2022-11-15T13:28:36;11.65;;;5.85;;
52412;SDS011;38339;53.234;6.578;2022-11-15T13:33:52;8.75;;;5.57;;
52412;SDS011;38339;53.234;6.578;2022-11-15T13:36:26;9.20;;;4.90;;
52412;SDS011;38339;53.234;6.578;2022-11-15T13:38:55;7.68;;;5.47;;
52412;SDS011;38339;53.234;6.578;2022-11-15T13:41:31;9.93;;;5.50;;
52412;SDS011;38339;53.234;6.578;2022-11-15T13:43:59;8.18;;;4.88;;
52412;SDS011;38339;53.234;6.578;2022-11-15T13:46:27;8.05;;;5.22;;
52412;SDS011;38339;53.234;6.578;2022-11-15T13:48:58;9.55;;;5.15;;
52412;SDS011;38339;53.234;6.578;2022-11-15T13:51:26;9.93;;;5.28;;
52412;SDS011;38339;53.234;6.578;2022-11-15T13:56:53;8.88;;;5.38;;
52412;SDS011;38339;53.234;6.578;2022-11-15T14:01:53;7.82;;;4.82;;
52412;SDS011;38339;53.234;6.578;2022-11-15T14:04:22;11.57;;;5.57;;
52412;SDS011;38339;53.234;6.578;2022-11-15T14:06:53;8.98;;;5.30;;
52412;SDS011;38339;53.234;6.578;2022-11-15T14:12:19;15.27;;;6.05;;
52412;SDS011;38339;53.234;6.578;2022-11-15T14:14:54;11.38;;;5.20;;
52412;SDS011;38339;53.234;6.578;2022-11-15T14:17:21;10.43;;;5.13;;
52412;SDS011;38339;53.234;6.578;2022-11-15T14:19:59;10.30;;;5.55;;
52412;SDS011;38339;53.234;6.578;2022-11-15T14:22:26;11.38;;;5.90;;
52412;SDS011;38339;53.234;6.578;2022-11-15T14:25:06;7.20;;;5.57;;
52412;SDS011;38339;53.234;6.578;2022-11-15T14:27:44;8.93;;;5.60;;
52412;SDS011;38339;53.234;6.578;2022-11-15T14:30:29;9.23;;;5.65;;
52412;SDS011;38339;53.234;6.578;2022-11-15T14:32:54;9.55;;;5.60;;
52412;SDS011;38339;53.234;6.578;2022-11-15T14:35:21;12.13;;;5.43;;
52412;SDS011;38339;53.234;6.578;2022-11-15T14:37:47;9.60;;;5.18;;
52412;SDS011;38339;53.234;6.578;2022-11-15T14:40:18;9.73;;;5.45;;
52412;SDS011;38339;53.234;6.578;2022-11-15T14:42:46;9.27;;;5.40;;
52412;SDS011;38339;53.234;6.578;2022-11-15T14:45:14;9.75;;;5.40;;
52412;SDS011;38339;53.234;6.578;2022-11-15T14:47:41;6.30;;;4.63;;
52412;SDS011;38339;53.234;6.578;2022-11-15T14:50:11;7.75;;;4.68;;
52412;SDS011;38339;53.234;6.578;2022-11-15T14:52:37;10.25;;;4.78;;
52412;SDS011;38339;53.234;6.578;2022-11-15T14:55:10;7.85;;;4.45;;
52412;SDS011;38339;53.234;6.578;2022-11-15T14:57:46;9.23;;;4.55;;
52412;SDS011;38339;53.234;6.578;2022-11-15T15:00:12;11.52;;;4.72;;
52412;SDS011;38339;53.234;6.578;2022-11-15T15:02:39;12.20;;;5.20;;
52412;SDS011;38339;53.234;6.578;2022-11-15T15:05:19;9.98;;;4.93;;
52412;SDS011;38339;53.234;6.578;2022-11-15T15:07:49;9.27;;;4.75;;
52412;SDS011;38339;53.234;6.578;2022-11-15T15:10:15;9.50;;;5.20;;
52412;SDS011;38339;53.234;6.578;2022-11-15T15:12:42;8.25;;;4.95;;
52412;SDS011;38339;53.234;6.578;2022-11-15T15:15:21;7.78;;;5.35;;
52412;SDS011;38339;53.234;6.578;2022-11-15T15:17:50;14.73;;;5.78;;
52412;SDS011;38339;53.234;6.578;2022-11-15T15:20:16;14.93;;;5.43;;
52412;SDS011;38339;53.234;6.578;2022-11-15T15:22:42;12.93;;;6.28;;
52412;SDS011;38339;53.234;6.578;2022-11-15T15:25:26;11.43;;;5.07;;
52412;SDS011;38339;53.234;6.578;2022-11-15T15:28:00;10.38;;;5.65;;
52412;SDS011;38339;53.234;6.578;2022-11-15T15:30:27;10.73;;;5.80;;
52412;SDS011;38339;53.234;6.578;2022-11-15T15:32:54;8.30;;;5.53;;
52412;SDS011;38339;53.234;6.578;2022-11-15T15:35:20;12.23;;;5.88;;
52412;SDS011;38339;53.234;6.578;2022-11-15T15:37:47;10.25;;;5.38;;
52412;SDS011;38339;53.234;6.578;2022-11-15T15:40:18;8.40;;;5.55;;
52412;SDS011;38339;53.234;6.578;2022-11-15T15:42:45;9.68;;;5.40;;
52412;SDS011;38339;53.234;6.578;2022-11-15T15:45:13;7.45;;;5.65;;
52412;SDS011;38339;53.234;6.578;2022-11-15T15:47:39;10.20;;;6.50;;
52412;SDS011;38339;53.234;6.578;2022-11-15T15:50:14;9.20;;;5.72;;
52412;SDS011;38339;53.234;6.578;2022-11-15T15:52:47;8.43;;;5.90;;
52412;SDS011;38339;53.234;6.578;2022-11-15T15:55:13;12.32;;;6.53;;
52412;SDS011;38339;53.234;6.578;2022-11-15T15:57:39;11.00;;;6.72;;
52412;SDS011;38339;53.234;6.578;2022-11-15T16:00:05;7.95;;;6.07;;
52412;SDS011;38339;53.234;6.578;2022-11-15T16:02:31;8.88;;;5.50;;
52412;SDS011;38339;53.234;6.578;2022-11-15T16:04:57;9.63;;;6.43;;
52412;SDS011;38339;53.234;6.578;2022-11-15T16:07:22;8.73;;;6.57;;
52412;SDS011;38339;53.234;6.578;2022-11-15T16:09:49;10.40;;;6.20;;
52412;SDS011;38339;53.234;6.578;2022-11-15T16:12:32;14.65;;;6.85;;
52412;SDS011;38339;53.234;6.578;2022-11-15T16:14:59;9.07;;;6.30;;
52412;SDS011;38339;53.234;6.578;2022-11-15T16:17:28;9.15;;;6.95;;
52412;SDS011;38339;53.234;6.578;2022-11-15T16:19:58;13.77;;;8.63;;
52412;SDS011;38339;53.234;6.578;2022-11-15T16:22:24;17.50;;;10.90;;
52412;SDS011;38339;53.234;6.578;2022-11-15T16:24:49;13.77;;;8.88;;
52412;SDS011;38339;53.234;6.578;2022-11-15T16:27:16;12.77;;;8.20;;
52412;SDS011;38339;53.234;6.578;2022-11-15T16:29:43;12.73;;;8.07;;
52412;SDS011;38339;53.234;6.578;2022-11-15T16:32:09;11.25;;;7.07;;
52412;SDS011;38339;53.234;6.578;2022-11-15T16:34:35;10.80;;;7.30;;
52412;SDS011;38339;53.234;6.578;2022-11-15T16:37:01;13.20;;;7.70;;
52412;SDS011;38339;53.234;6.578;2022-11-15T16:39:27;11.23;;;7.28;;
52412;SDS011;38339;53.234;6.578;2022-11-15T16:41:58;11.70;;;7.63;;
52412;SDS011;38339;53.234;6.578;2022-11-15T16:44:24;10.20;;;7.60;;
52412;SDS011;38339;53.234;6.578;2022-11-15T16:46:50;8.90;;;7.13;;
52412;SDS011;38339;53.234;6.578;2022-11-15T16:49:17;9.38;;;7.72;;
52412;SDS011;38339;53.234;6.578;2022-11-15T16:51:44;10.65;;;7.55;;
52412;SDS011;38339;53.234;6.578;2022-11-15T16:54:11;9.20;;;7.22;;
52412;SDS011;38339;53.234;6.578;2022-11-15T16:56:37;9.40;;;7.30;;
52412;SDS011;38339;53.234;6.578;2022-11-15T16:59:04;10.98;;;7.07;;
52412;SDS011;38339;53.234;6.578;2022-11-15T17:01:34;9.43;;;6.63;;
52412;SDS011;38339;53.234;6.578;2022-11-15T17:04:14;8.20;;;5.80;;
52412;SDS011;38339;53.234;6.578;2022-11-15T17:06:42;9.85;;;5.85;;